Litchfield, South Carolina
Current Conditions -  °F | °C
As of 9:55 PM on Sunday 21 Dec 2014 (Local Time) from KGGE Reporting Station
Drizzle Drizzle  
Wind Chill: 42°   Ceiling: 1300
Heat Index: 46°   Visibility: 10mi
Dew Point: 45°   Wind: 8mph
Humidity: 93%   Direction: 30°NNE
Pressure: 30.16"   Gusts: NA
Location:  33.4421°N, 79.1517°W
Report Text: KGGE 220255Z AUTO 03007KT 10SM -DZ BKN013 OVC028 08/07 A3016 RMK AO2
Loading
Personal Weather Stations






























Interactive Weather Map New forecast layout! Learn more

10-Day Weather Forecast

Advertisements
Track Severe Weather on mobile